New Harbor, ME

43° 52' 34"N, 69° 29' 40"W, Elevation 65 ft.
Eastern Time

Hourly observations for the last 72 hours

Date Time Temperature (°F) Humi-
dity

(%)
Wind
(mph)
Pressure Rain (in) Sun
(W/m2)
ET
(in)
Air Dew 6 Hour 1 Hr 3 Hr 6 Hr Day
Alt
(in)
Sea
Level

(mb)
Max Min
17 03:00 61.8 61.2 98 NE 1 G 3 29.85 1010.9 0.00 0 0.000
17 02:00 62.0 61.1 64.7 61.9 97 E 1 G 5 29.87 1011.6 0.00 0 0.000
17 01:00 63.0 62.1 97 Calm 29.90 1012.6 0.00 0 0.000
17 00:00 64.0 63.4 98 S 0 G 2 29.91 1012.8 0.00 0 0.094
16 23:00 64.3 63.4 97 SSE 0 G 2 29.91 1012.9 0.00 0 0.094
16 22:00 64.3 63.4 97 S 0 G 3 29.92 1013.2 0.00 0 0.094
16 21:00 64.1 63.2 97 S 2 G 4 29.92 1013.3 0.00 0 0.094
16 20:00 64.5 63.3 73.4 64.4 96 S 1 G 3 29.92 1013.3 0.00 5 0.093
16 19:00 65.5 63.7 94 S 1 G 6 29.92 1013.4 0.00 47 0.091
16 18:00 66.9 64.2 91 S 1 G 3 29.93 1013.4 0.00 190 0.088
16 17:00 68.5 65.1 89 S 4 G 7 29.93 1013.6 0.00 218 0.083
16 16:00 71.3 66.6 85 SSW 2 G 6 29.95 1014.1 0.00 316 0.075
16 15:00 71.7 66.6 84 S 3 G 6 29.95 1014.3 0.00 285 0.066
16 14:00 71.8 66.7 74.7 64.6 84 SSE 1 G 5 29.96 1014.7 0.00 417 0.055
16 13:00 72.1 67.0 84 S 2 G 6 29.97 1014.9 0.00 487 0.043
16 12:00 72.7 66.9 82 SSE 3 G 8 29.97 1015.0 0.00 954 0.026
16 11:00 70.3 65.9 86 S 2 G 5 29.98 1015.2 0.00 555 0.014
16 10:00 67.8 64.4 89 NE 1 G 2 29.98 1015.2 0.00 383 0.008
16 09:00 64.9 62.5 92 SE 1 G 2 29.98 1015.2 0.00 207 0.004
16 08:00 65.8 63.7 65.9 59.8 93 N 1 G 2 29.97 1015.1 0.00 128 0.001
16 07:00 63.8 63.2 98 NNE 0 G 2 29.97 1014.8 0.00 95 0.000
16 06:00 61.3 60.4 97 NNE 0 G 2 29.96 1014.7 0.00 32 0.000
16 05:00 60.5 59.6 97 NNE 0 G 1 29.96 1014.6 0.00 0 0.000
16 04:00 59.9 59.0 97 W 0 G 1 29.95 1014.2 0.00 0 0.000
16 03:00 61.0 59.9 96 Calm 29.94 1014.1 0.00 0 0.000
16 02:00 60.4 59.3 65.7 60.4 96 W 0 G 2 29.96 1014.6 0.00 0 0.000
16 01:00 62.0 60.6 95 S 0 G 2 29.96 1014.6 0.00 0 0.000
16 00:00 63.4 61.6 94 S 0 G 2 29.96 1014.7 0.00 0 0.112
15 23:00 64.6 62.5 93 S 0 G 3 29.95 1014.4 0.00 0 0.112
15 22:00 64.4 62.6 94 S 0 G 1 29.97 1014.9 0.00 0 0.112
15 21:00 64.0 61.9 93 S 0 G 2 29.95 1014.4 0.00 0 0.112
15 20:00 65.7 63.0 75.6 65.7 91 S 0 G 4 29.93 1013.7 0.00 19 0.111
15 19:00 67.7 63.7 87 SSE 1 G 6 29.93 1013.5 0.00 49 0.109
15 18:00 69.4 63.7 82 S 1 G 7 29.93 1013.4 0.00 79 0.100
15 17:00 72.8 65.2 77 S 3 G 8 29.92 1013.4 0.00 471 0.086
15 16:00 74.5 65.7 74 SSW 3 G 8 29.93 1013.4 0.00 636 0.069
15 15:00 73.9 65.5 75 S 4 G 9 29.93 1013.6 0.00 772 0.049
15 14:00 68.6 63.2 72.4 62.6 83 S 3 G 8 29.93 1013.7 0.00 373 0.039
15 13:00 72.1 64.9 78 ENE 1 G 5 29.96 1014.7 0.00 1020 0.025
15 12:00 67.2 62.5 85 SSE 1 G 2 29.96 1014.7 0.00 236 0.018
15 11:00 67.5 63.2 86 ENE 1 G 2 29.96 1014.6 0.00 366 0.010
15 10:00 64.8 61.5 89 ENE 0 G 1 29.96 1014.6 0.00 216 0.007
15 09:00 64.0 61.0 90 SSE 0 G 1 29.97 1014.9 0.00 74 0.004
15 08:00 64.3 61.0 64.4 61.7 89 S 2 G 3 29.97 1015.0 0.00 155 0.001
15 07:00 63.4 60.7 91 Calm 29.98 1015.1 0.00 88 0.000
15 06:00 62.4 60.4 93 Calm 29.98 1015.3 0.00 7 0.000
15 05:00 62.4 60.0 92 Calm 29.97 1015.0 0.00 0 0.000
15 04:00 62.0 59.7 92 S 2 G 3 29.98 1015.4 0.00 0 0.000
15 03:00 61.8 58.8 90 S 1 G 2 30.00 1015.8 0.00 0 0.000
15 02:00 62.4 58.8 62.6 61.5 88 S 1 G 3 30.00 1016.0 0.00 0 0.000
15 01:00 62.0 58.4 88 S 1 G 2 30.01 1016.5 0.00 0 0.000
15 00:00 62.1 58.2 87 S 1 G 3 30.03 1017.0 0.00 0 0.101
14 23:00 62.1 57.5 85 S 1 G 3 30.03 1017.1 0.00 0 0.101
14 22:00 62.1 59.4 91 SE 1 G 1 30.06 1017.9 0.00 0 0.101
14 21:00 61.8 58.8 90 S 0 G 2 30.05 1017.6 0.00 0 0.101
14 20:00 61.8 58.2 67.4 61.8 88 S 0 G 2 30.04 1017.4 0.00 0 0.101
14 19:00 62.7 58.5 86 S 0 G 2 30.06 1017.8 0.00 9 0.100
14 18:00 62.5 58.6 87 SE 0 G 2 30.06 1018.1 0.00 33 0.099
14 17:00 63.5 59.2 86 E 0 G 2 30.07 1018.5 0.00 77 0.097
14 16:00 64.2 59.3 84 S 0 G 3 30.09 1018.9 0.00 109 0.094
14 15:00 64.7 59.4 83 ESE 0 G 2 30.10 1019.4 0.00 113 0.089
14 14:00 66.7 58.5 71.0 61.5 75 S 2 G 4 30.11 1019.8 0.00 420 0.076
14 13:00 69.4 61.1 75 E 2 G 3 30.12 1020.0 0.00 557 0.058
14 12:00 67.1 59.7 77 ENE 1 G 3 30.14 1020.5 0.00 780 0.041
14 11:00 68.7 59.3 72 E 1 G 3 30.14 1020.8 0.00 608 0.026
14 10:00 67.2 59.0 75 ENE 1 G 3 30.16 1021.2 0.00 721 0.013
14 09:00 65.1 58.4 79 N 1 G 4 30.17 1021.5 0.00 443 0.004
14 08:00 61.5 58.2 61.5 53.5 89 ENE 1 G 4 30.18 1022.0 0.00 371 0.001
14 07:00 59.3 57.9 95 ENE 1 G 2 30.17 1021.8 0.00 142 0.000
14 06:00 55.0 54.2 97 Calm 30.17 1021.9 0.00 53 0.000
14 05:00 53.9 52.8 96 ENE 0 G 2 30.17 1021.7 0.00 0 0.000
14 04:00 54.3 53.2 96 ENE 1 G 2 30.18 1022.0 0.00 0 0.000

Data generated by WxSolution Version 1.9.1.5, Build 2018.05.20.